createdAt,value
2018-07-16T00:00:19.121Z,3.10
2018-07-16T00:02:47.571Z,3.40
2018-07-16T00:05:15.930Z,3.20
2018-07-16T00:07:44.356Z,3.20
2018-07-16T00:10:12.732Z,3.13
2018-07-16T00:12:41.176Z,3.20
2018-07-16T00:15:09.608Z,3.57
2018-07-16T00:17:38.013Z,3.23
2018-07-16T00:20:07.484Z,3.27
2018-07-16T00:22:35.876Z,3.33
2018-07-16T00:25:04.343Z,3.07
2018-07-16T00:27:32.724Z,3.40
2018-07-16T00:30:01.144Z,3.33
2018-07-16T00:32:29.247Z,3.20
2018-07-16T00:34:57.604Z,3.47
2018-07-16T00:37:25.696Z,3.17
2018-07-16T00:39:54.070Z,3.63
2018-07-16T00:42:22.160Z,3.60
2018-07-16T00:44:50.537Z,3.90
2018-07-16T00:47:18.885Z,3.53
2018-07-16T00:49:46.990Z,3.57
2018-07-16T00:52:15.076Z,4.20
2018-07-16T00:54:43.753Z,4.10
2018-07-16T00:57:12.105Z,3.60
2018-07-16T00:59:40.510Z,4.00
2018-07-16T01:02:08.865Z,3.90
2018-07-16T01:04:37.225Z,4.20
2018-07-16T01:07:05.581Z,4.17
2018-07-16T01:09:33.969Z,3.93
2018-07-16T01:12:02.417Z,3.80
2018-07-16T01:14:30.799Z,4.13
2018-07-16T01:16:59.160Z,3.63
2018-07-16T01:19:27.539Z,3.40
2018-07-16T01:21:56.003Z,3.90
2018-07-16T01:24:24.103Z,3.63
2018-07-16T01:26:52.452Z,3.77
2018-07-16T01:29:20.593Z,4.23
2018-07-16T01:31:48.958Z,3.90
2018-07-16T01:34:17.344Z,4.20
2018-07-16T01:36:45.680Z,3.80
2018-07-16T01:39:14.047Z,4.17
2018-07-16T01:41:42.155Z,4.20
2018-07-16T01:44:10.512Z,3.97
2018-07-16T01:46:38.866Z,4.13
2018-07-16T01:49:07.247Z,3.97
2018-07-16T01:51:35.602Z,3.67
2018-07-16T01:54:03.992Z,4.10
2018-07-16T01:56:32.368Z,4.00
2018-07-16T01:59:00.751Z,3.80
2018-07-16T02:01:29.105Z,3.93
2018-07-16T02:03:57.475Z,4.00
2018-07-16T02:06:25.832Z,3.93
2018-07-16T02:08:54.200Z,3.77
2018-07-16T02:11:22.544Z,3.73
2018-07-16T02:13:50.986Z,3.70
2018-07-16T02:16:19.339Z,4.30
2018-07-16T02:18:47.435Z,3.73
2018-07-16T02:21:15.782Z,4.40
2018-07-16T02:23:44.159Z,4.70
2018-07-16T02:26:12.491Z,4.07
2018-07-16T02:28:40.866Z,4.60
2018-07-16T02:31:09.220Z,4.50
2018-07-16T02:33:37.601Z,4.37
2018-07-16T02:36:05.958Z,4.53
2018-07-16T02:38:34.321Z,4.57
2018-07-16T02:41:02.695Z,4.40
2018-07-16T02:43:31.226Z,4.40
2018-07-16T02:45:59.593Z,4.27
2018-07-16T02:48:27.976Z,4.23
2018-07-16T02:50:56.072Z,4.20
2018-07-16T02:53:24.420Z,4.33
2018-07-16T02:55:52.535Z,5.20
2018-07-16T02:58:20.864Z,4.63
2018-07-16T03:00:49.239Z,4.20
2018-07-16T03:03:17.564Z,4.90
2018-07-16T03:05:45.925Z,4.93
2018-07-16T03:08:14.260Z,5.23
2018-07-16T03:10:42.630Z,4.67
2018-07-16T03:13:10.976Z,4.60
2018-07-16T03:15:39.387Z,5.17
2018-07-16T03:18:07.834Z,4.77
2018-07-16T03:20:36.133Z,4.60
2018-07-16T03:23:04.515Z,4.60
2018-07-16T03:25:32.888Z,4.53
2018-07-16T03:28:01.229Z,4.57
2018-07-16T03:30:29.592Z,5.00
2018-07-16T03:32:57.938Z,4.87
2018-07-16T03:35:26.334Z,4.63
2018-07-16T03:37:54.718Z,5.10
2018-07-16T03:40:23.090Z,4.93
2018-07-16T03:42:51.460Z,4.57
2018-07-16T03:45:19.853Z,4.70
2018-07-16T03:47:48.212Z,4.60
2018-07-16T03:50:16.584Z,4.13
2018-07-16T03:52:44.930Z,4.47
2018-07-16T03:55:13.308Z,4.93
2018-07-16T03:57:41.380Z,5.10
2018-07-16T04:00:09.767Z,5.00
2018-07-16T04:02:38.104Z,5.50
2018-07-16T04:05:06.511Z,5.97
2018-07-16T04:07:34.572Z,5.10
2018-07-16T04:10:02.943Z,5.83
2018-07-16T04:12:31.283Z,5.10
2018-07-16T04:14:59.668Z,4.93
2018-07-16T04:17:28.016Z,4.87
2018-07-16T04:19:56.420Z,4.87
2018-07-16T04:22:24.780Z,5.07
2018-07-16T04:24:53.144Z,5.13
2018-07-16T04:27:21.228Z,5.13
2018-07-16T04:29:49.611Z,5.50
2018-07-16T04:32:17.972Z,5.47
2018-07-16T04:34:46.067Z,5.43
2018-07-16T04:37:14.420Z,5.03
2018-07-16T04:39:42.865Z,5.83
2018-07-16T04:42:11.316Z,6.40
2018-07-16T04:44:39.656Z,6.63
2018-07-16T04:47:07.752Z,6.37
2018-07-16T04:49:36.075Z,7.17
2018-07-16T04:52:04.463Z,6.53
2018-07-16T04:54:32.808Z,6.70
2018-07-16T04:57:01.243Z,6.23
2018-07-16T04:59:29.567Z,6.17
2018-07-16T05:01:57.929Z,6.70
2018-07-16T05:04:26.263Z,6.57
2018-07-16T05:06:54.613Z,6.80
2018-07-16T05:09:22.944Z,7.43
2018-07-16T05:11:51.300Z,6.97
2018-07-16T05:14:19.655Z,7.60
2018-07-16T05:16:48.020Z,6.90
2018-07-16T05:19:16.377Z,7.83
2018-07-16T05:21:44.482Z,7.63
2018-07-16T05:24:12.861Z,8.17
2018-07-16T05:26:41.208Z,7.20
2018-07-16T05:29:09.259Z,7.30
2018-07-16T05:31:37.639Z,7.00
2018-07-16T05:34:06.929Z,7.87
2018-07-16T05:36:35.296Z,7.37
2018-07-16T05:39:03.729Z,7.67
2018-07-16T05:41:31.808Z,6.97
2018-07-16T05:44:00.135Z,7.50
2018-07-16T05:46:28.530Z,7.77
2018-07-16T05:48:56.868Z,7.73
2018-07-16T05:51:25.264Z,7.20
2018-07-16T05:53:53.595Z,7.90
2018-07-16T05:56:22.093Z,8.10
2018-07-16T05:58:50.445Z,8.70
2018-07-16T06:01:18.563Z,7.43
2018-07-16T06:03:46.877Z,7.43
2018-07-16T06:06:15.259Z,7.40
2018-07-16T06:08:43.657Z,7.30
2018-07-16T06:11:12.048Z,7.63
2018-07-16T06:13:40.107Z,7.50
2018-07-16T06:16:08.513Z,6.73
2018-07-16T06:18:36.882Z,7.60
2018-07-16T06:21:04.983Z,6.47
2018-07-16T06:23:33.324Z,6.90
2018-07-16T06:26:01.699Z,6.63
2018-07-16T06:28:30.030Z,6.50
2018-07-16T06:30:58.603Z,6.17
2018-07-16T06:33:27.041Z,6.20
2018-07-16T06:35:56.048Z,5.87
2018-07-16T06:38:25.166Z,5.97
2018-07-16T06:40:53.827Z,7.00
2018-07-16T06:43:21.939Z,6.37
2018-07-16T06:45:50.279Z,6.43
2018-07-16T06:48:18.635Z,6.97
2018-07-16T06:50:46.975Z,6.30
2018-07-16T06:53:15.333Z,5.63
2018-07-16T06:55:43.704Z,6.77
2018-07-16T06:58:11.822Z,6.50
2018-07-16T07:00:40.176Z,5.97
2018-07-16T07:03:08.665Z,5.93
2018-07-16T07:05:37.038Z,5.90
2018-07-16T07:08:05.452Z,6.40
2018-07-16T07:10:33.825Z,5.97
2018-07-16T07:13:02.469Z,5.33
2018-07-16T07:15:30.540Z,5.40
2018-07-16T07:17:58.639Z,5.57
2018-07-16T07:20:26.980Z,5.20
2018-07-16T07:22:55.349Z,5.50
2018-07-16T07:25:23.691Z,5.83
2018-07-16T07:27:52.092Z,5.37
2018-07-16T07:30:20.456Z,5.10
2018-07-16T07:32:48.812Z,4.70
2018-07-16T07:35:17.274Z,4.70
2018-07-16T07:37:45.514Z,4.23
2018-07-16T07:40:13.847Z,4.80
2018-07-16T07:42:42.213Z,4.60
2018-07-16T07:45:10.276Z,4.73
2018-07-16T07:47:38.387Z,4.10
2018-07-16T07:50:06.739Z,4.40
2018-07-16T07:52:34.834Z,4.50
2018-07-16T07:55:03.512Z,4.40
2018-07-16T07:57:31.580Z,4.30
2018-07-16T07:59:59.903Z,4.47
2018-07-16T08:02:28.267Z,4.47
2018-07-16T08:04:56.588Z,3.90
2018-07-16T08:07:24.932Z,3.53
2018-07-16T08:09:53.248Z,3.77
2018-07-16T08:12:21.627Z,3.73
2018-07-16T08:14:49.971Z,3.57
2018-07-16T08:17:18.339Z,3.60
2018-07-16T08:19:46.673Z,3.80
2018-07-16T08:22:14.769Z,3.77
2018-07-16T08:24:43.142Z,3.30
2018-07-16T08:27:11.510Z,3.20
2018-07-16T08:29:39.846Z,3.77
2018-07-16T08:32:08.496Z,3.47
2018-07-16T08:34:36.872Z,3.40
2018-07-16T08:37:05.253Z,2.90
2018-07-16T08:39:33.645Z,2.80
2018-07-16T08:42:01.992Z,3.47
2018-07-16T08:44:30.397Z,3.40
2018-07-16T08:46:58.808Z,2.90
2018-07-16T08:49:27.159Z,2.60
2018-07-16T08:51:55.483Z,2.60
2018-07-16T08:54:23.847Z,2.87
2018-07-16T08:56:52.206Z,2.80
2018-07-16T08:59:20.687Z,2.50
2018-07-16T09:01:48.992Z,2.73
2018-07-16T09:04:17.347Z,2.60
2018-07-16T09:06:45.675Z,2.50
2018-07-16T09:09:14.025Z,2.90
2018-07-16T09:11:42.339Z,2.80
2018-07-16T09:14:10.695Z,2.80
2018-07-16T09:16:39.024Z,2.53
2018-07-16T09:19:07.421Z,2.33
2018-07-16T09:21:35.724Z,2.30
2018-07-16T09:24:04.119Z,2.40
2018-07-16T09:26:32.460Z,2.47
2018-07-16T09:29:00.815Z,2.37
2018-07-16T09:31:29.133Z,2.30
2018-07-16T09:33:57.515Z,2.63
2018-07-16T09:36:25.844Z,2.67
2018-07-16T09:38:53.925Z,2.20
2018-07-16T09:41:22.260Z,2.40
2018-07-16T09:43:50.600Z,2.37
2018-07-16T09:46:18.903Z,2.60
2018-07-16T09:48:47.267Z,2.30
2018-07-16T09:51:15.592Z,2.53
2018-07-16T09:53:43.951Z,2.80
2018-07-16T09:56:12.387Z,2.43
2018-07-16T09:58:40.712Z,2.63
2018-07-16T10:01:14.356Z,2.60
2018-07-16T10:03:42.455Z,2.67
2018-07-16T10:06:10.788Z,2.70
2018-07-16T10:08:39.168Z,2.40
2018-07-16T10:11:07.524Z,2.57
2018-07-16T10:13:35.863Z,2.47
2018-07-16T10:16:04.244Z,2.53
2018-07-16T10:18:32.584Z,2.63
2018-07-16T10:21:00.960Z,2.27
2018-07-16T10:23:29.303Z,2.33
2018-07-16T10:25:57.769Z,2.70
2018-07-16T10:28:26.044Z,2.53
2018-07-16T10:30:54.400Z,2.62
2018-07-16T10:33:22.793Z,2.60
2018-07-16T10:35:50.893Z,2.60
2018-07-16T10:38:19.223Z,2.42
2018-07-16T10:40:47.584Z,2.40
2018-07-16T10:43:15.936Z,2.72
2018-07-16T10:45:44.315Z,2.65
2018-07-16T10:48:12.648Z,2.90
2018-07-16T10:50:40.768Z,2.83
2018-07-16T10:53:09.188Z,2.70
2018-07-16T10:55:37.580Z,2.37
2018-07-16T10:58:06.044Z,2.60
2018-07-16T11:00:34.425Z,2.77
2018-07-16T11:03:02.800Z,2.50
2018-07-16T11:05:31.274Z,2.67
2018-07-16T11:07:59.555Z,2.37
2018-07-16T11:10:27.924Z,2.67
2018-07-16T11:12:56.251Z,2.72
2018-07-16T11:15:24.344Z,2.60
2018-07-16T11:17:52.719Z,2.65
2018-07-16T11:20:21.088Z,2.47
2018-07-16T11:22:49.169Z,2.60
2018-07-16T11:25:17.552Z,2.67
2018-07-16T11:27:45.903Z,2.77
2018-07-16T11:30:14.017Z,2.80
2018-07-16T11:32:42.348Z,2.80
2018-07-16T11:35:10.707Z,2.70
2018-07-16T11:37:39.060Z,2.60
2018-07-16T11:40:07.463Z,2.30
2018-07-16T11:42:35.812Z,2.45
2018-07-16T11:45:04.391Z,2.50
2018-07-16T11:47:32.723Z,2.50
2018-07-16T11:50:01.083Z,2.37
2018-07-16T11:52:29.407Z,2.67
2018-07-16T11:54:57.519Z,2.70
2018-07-16T11:57:25.856Z,2.55
2018-07-16T11:59:55.778Z,3.42
2018-07-16T12:02:24.207Z,2.98
2018-07-16T12:04:52.640Z,3.00
2018-07-16T12:07:20.701Z,3.15
2018-07-16T12:09:49.054Z,2.70
2018-07-16T12:12:17.427Z,3.00
2018-07-16T12:14:45.844Z,2.80
2018-07-16T12:17:14.225Z,3.22
2018-07-16T12:19:42.556Z,3.20
2018-07-16T12:22:10.915Z,3.05
2018-07-16T12:24:39.232Z,2.90
2018-07-16T12:27:07.600Z,2.77
2018-07-16T12:29:35.940Z,2.70
2018-07-16T12:32:04.035Z,2.85
2018-07-16T12:34:32.370Z,2.87
2018-07-16T12:37:00.737Z,2.83
2018-07-16T12:39:29.061Z,3.40
2018-07-16T12:41:57.428Z,3.00
2018-07-16T12:44:25.764Z,2.80
2018-07-16T12:46:54.211Z,2.75
2018-07-16T12:49:22.945Z,3.20
2018-07-16T12:51:51.306Z,2.92
2018-07-16T12:54:19.640Z,2.70
2018-07-16T12:56:48.319Z,2.60
2018-07-16T12:59:16.655Z,2.60
2018-07-16T13:01:45.044Z,2.45
2018-07-16T13:04:13.388Z,2.70
2018-07-16T13:06:41.755Z,2.72
2018-07-16T13:09:10.080Z,2.62
2018-07-16T13:11:38.460Z,2.65
2018-07-16T13:14:06.811Z,2.70
2018-07-16T13:16:35.173Z,2.60
2018-07-16T13:19:03.506Z,2.62
2018-07-16T13:21:31.903Z,2.62
2018-07-16T13:24:00.235Z,2.40
2018-07-16T13:26:28.603Z,2.70
2018-07-16T13:28:56.935Z,2.65
2018-07-16T13:31:25.023Z,2.67
2018-07-16T13:33:53.352Z,2.52
2018-07-16T13:36:21.703Z,2.67
2018-07-16T13:38:50.065Z,2.40
2018-07-16T13:41:18.405Z,2.37
2018-07-16T13:43:46.736Z,2.15
2018-07-16T13:46:15.135Z,2.45
2018-07-16T13:48:43.491Z,2.50
2018-07-16T13:51:11.847Z,2.30
2018-07-16T13:53:40.190Z,2.47
2018-07-16T13:56:08.541Z,2.50
2018-07-16T13:58:36.888Z,2.60
2018-07-16T14:01:05.196Z,2.70
2018-07-16T14:03:33.543Z,2.67
2018-07-16T14:06:01.596Z,2.60
2018-07-16T14:08:29.955Z,2.20
2018-07-16T14:10:59.122Z,2.42
2018-07-16T14:13:27.476Z,2.50
2018-07-16T14:15:55.538Z,2.50
2018-07-16T14:18:23.879Z,2.58
2018-07-16T14:20:52.196Z,2.55
2018-07-16T14:23:20.300Z,2.40
2018-07-16T14:25:48.652Z,2.70
2018-07-16T14:28:17.008Z,2.52
2018-07-16T14:30:45.333Z,2.62
2018-07-16T14:33:13.688Z,2.50
2018-07-16T14:35:42.007Z,2.58
2018-07-16T14:38:10.364Z,2.30
2018-07-16T14:40:38.711Z,2.70
2018-07-16T14:43:07.067Z,2.25
2018-07-16T14:45:35.391Z,2.22
2018-07-16T14:48:03.747Z,2.25
2018-07-16T14:50:32.105Z,2.08
2018-07-16T14:53:00.443Z,2.40
2018-07-16T14:55:28.812Z,2.40
2018-07-16T14:57:57.180Z,2.50
2018-07-16T15:00:25.507Z,2.20
2018-07-16T15:02:53.868Z,2.40
2018-07-16T15:05:22.195Z,2.08
2018-07-16T15:07:50.555Z,2.17
2018-07-16T15:10:18.871Z,2.20
2018-07-16T15:12:47.235Z,2.17
2018-07-16T15:15:15.557Z,2.30
2018-07-16T15:17:43.925Z,2.30
2018-07-16T15:20:12.280Z,2.30
2018-07-16T15:22:40.631Z,2.12
2018-07-16T15:25:08.957Z,2.30
2018-07-16T15:27:37.318Z,2.25
2018-07-16T15:30:05.740Z,2.08
2018-07-16T15:32:34.107Z,2.05
2018-07-16T15:35:02.555Z,2.22
2018-07-16T15:37:30.926Z,2.10
2018-07-16T15:39:59.250Z,2.27
2018-07-16T15:42:27.605Z,1.98
2018-07-16T15:44:55.650Z,2.27
2018-07-16T15:47:24.028Z,2.40
2018-07-16T15:49:52.358Z,2.25
2018-07-16T15:52:20.696Z,2.27
2018-07-16T15:54:49.051Z,2.10
2018-07-16T15:57:17.427Z,2.10
2018-07-16T15:59:46.413Z,2.10
2018-07-16T16:02:14.819Z,2.00
2018-07-16T16:04:43.179Z,1.90
2018-07-16T16:07:11.498Z,2.20
2018-07-16T16:09:41.025Z,2.00
2018-07-16T16:12:09.903Z,2.20
2018-07-16T16:14:37.988Z,2.10
2018-07-16T16:17:06.547Z,2.10
2018-07-16T16:19:35.018Z,2.12
2018-07-16T16:22:03.278Z,2.20
2018-07-16T16:24:31.623Z,1.90
2018-07-16T16:26:59.983Z,1.90
2018-07-16T16:29:28.074Z,2.10
2018-07-16T16:31:56.428Z,2.00
2018-07-16T16:34:24.507Z,1.90
2018-07-16T16:36:52.848Z,2.30
2018-07-16T16:39:21.230Z,2.00
2018-07-16T16:41:49.577Z,1.90
2018-07-16T16:44:17.949Z,1.95
2018-07-16T16:46:46.283Z,2.00
2018-07-16T16:49:14.741Z,2.00
2018-07-16T16:51:42.989Z,1.95
2018-07-16T16:54:11.366Z,2.02
2018-07-16T16:56:39.806Z,1.92
2018-07-16T16:59:08.199Z,1.90
2018-07-16T17:01:36.520Z,1.90
2018-07-16T17:04:04.896Z,2.42
2018-07-16T17:06:33.244Z,2.00
2018-07-16T17:09:01.600Z,2.20
2018-07-16T17:11:29.929Z,2.10
2018-07-16T17:13:58.287Z,2.60
2018-07-16T17:16:26.608Z,2.00
2018-07-16T17:18:54.972Z,1.85
2018-07-16T17:21:23.319Z,2.08
2018-07-16T17:23:51.749Z,2.15
2018-07-16T17:26:20.032Z,2.17
2018-07-16T17:28:48.400Z,1.95
2018-07-16T17:31:16.880Z,1.92
2018-07-16T17:33:45.279Z,2.33
2018-07-16T17:36:13.620Z,2.20
2018-07-16T17:38:42.008Z,2.17
2018-07-16T17:41:10.389Z,2.10
2018-07-16T17:43:38.755Z,2.10
2018-07-16T17:46:07.125Z,2.60
2018-07-16T17:48:35.480Z,2.20
2018-07-16T17:51:03.637Z,2.40
2018-07-16T17:53:32.058Z,2.60
2018-07-16T17:56:00.424Z,2.50
2018-07-16T17:58:28.492Z,2.40
2018-07-16T18:00:56.582Z,2.40
2018-07-16T18:03:24.927Z,2.62
2018-07-16T18:05:53.284Z,2.52
2018-07-16T18:08:21.647Z,2.10
2018-07-16T18:10:50.021Z,2.40
2018-07-16T18:13:18.407Z,2.60
2018-07-16T18:15:46.752Z,2.40
2018-07-16T18:18:14.826Z,2.60
2018-07-16T18:20:43.195Z,2.47
2018-07-16T18:23:11.265Z,2.40
2018-07-16T18:25:39.647Z,2.62
2018-07-16T18:28:07.999Z,2.70
2018-07-16T18:30:36.376Z,2.60
2018-07-16T18:33:04.728Z,2.55
2018-07-16T18:35:33.139Z,2.60
2018-07-16T18:38:01.484Z,2.85
2018-07-16T18:40:29.911Z,2.60
2018-07-16T18:42:58.258Z,2.20
2018-07-16T18:45:26.639Z,2.50
2018-07-16T18:47:54.976Z,2.72
2018-07-16T18:50:23.352Z,2.65
2018-07-16T18:52:51.733Z,2.40
2018-07-16T18:55:19.867Z,2.72
2018-07-16T18:57:48.204Z,2.62
2018-07-16T19:00:16.596Z,2.87
2018-07-16T19:02:44.948Z,2.70
2018-07-16T19:05:13.331Z,2.70
2018-07-16T19:07:41.684Z,2.90
2018-07-16T19:10:09.788Z,2.72
2018-07-16T19:12:38.124Z,2.85
2018-07-16T19:15:12.900Z,2.60
2018-07-16T19:17:41.324Z,2.90
2018-07-16T19:20:09.716Z,2.65
2018-07-16T19:22:38.071Z,2.72
2018-07-16T19:25:06.529Z,2.92
2018-07-16T19:27:34.892Z,3.00
2018-07-16T19:30:03.315Z,2.90
2018-07-16T19:32:31.672Z,2.92
2018-07-16T19:35:02.726Z,2.90
2018-07-16T19:37:32.416Z,2.87
2018-07-16T19:40:00.904Z,2.72
2018-07-16T19:42:29.383Z,3.17
2018-07-16T19:44:57.886Z,3.17
2018-07-16T19:47:26.237Z,2.90
2018-07-16T19:49:54.590Z,3.30
2018-07-16T19:52:22.976Z,2.70
2018-07-16T19:54:51.087Z,2.87
2018-07-16T19:57:19.490Z,2.92
2018-07-16T19:59:47.828Z,2.90
2018-07-16T20:02:16.200Z,2.92
2018-07-16T20:04:44.532Z,3.25
2018-07-16T20:07:12.940Z,3.20
2018-07-16T20:09:41.380Z,3.33
2018-07-16T20:12:14.186Z,3.30
2018-07-16T20:14:42.528Z,3.60
2018-07-16T20:17:10.912Z,3.12
2018-07-16T20:19:39.338Z,3.02
2018-07-16T20:22:07.715Z,3.22
2018-07-16T20:24:36.046Z,3.25
2018-07-16T20:27:04.437Z,3.58
2018-07-16T20:29:32.767Z,3.15
2018-07-16T20:32:00.872Z,3.20
2018-07-16T20:34:29.225Z,3.40
2018-07-16T20:36:57.589Z,3.25
2018-07-16T20:39:25.940Z,3.20
2018-07-16T20:41:54.332Z,3.33
2018-07-16T20:44:22.709Z,3.27
2018-07-16T20:46:51.115Z,3.12
2018-07-16T20:49:19.444Z,3.67
2018-07-16T20:51:47.825Z,3.35
2018-07-16T20:54:16.188Z,3.50
2018-07-16T20:56:44.589Z,3.40
2018-07-16T20:59:12.960Z,3.35
2018-07-16T21:01:41.381Z,4.17
2018-07-16T21:04:09.737Z,3.40
2018-07-16T21:06:38.144Z,3.70
2018-07-16T21:09:08.059Z,3.72
2018-07-16T21:11:36.266Z,3.70
2018-07-16T21:14:04.737Z,3.55
2018-07-16T21:16:33.133Z,3.58
2018-07-16T21:19:01.183Z,3.52
2018-07-16T21:21:29.601Z,3.50
2018-07-16T21:23:57.955Z,3.85
2018-07-16T21:26:26.379Z,4.50
2018-07-16T21:28:54.725Z,4.90
2018-07-16T21:31:25.675Z,4.20
2018-07-16T21:33:54.148Z,4.10
2018-07-16T21:36:22.574Z,3.90
2018-07-16T21:38:50.982Z,3.73
2018-07-16T21:41:19.087Z,3.67
2018-07-16T21:43:47.413Z,3.93
2018-07-16T21:46:15.904Z,3.70
2018-07-16T21:48:44.247Z,3.77
2018-07-16T21:51:12.592Z,3.70
2018-07-16T21:53:40.967Z,3.80
2018-07-16T21:56:09.336Z,3.67
2018-07-16T21:58:37.423Z,3.90
2018-07-16T22:01:05.783Z,4.20
2018-07-16T22:03:33.887Z,3.90
2018-07-16T22:06:02.224Z,3.50
2018-07-16T22:08:30.726Z,3.90
2018-07-16T22:10:59.080Z,3.63
2018-07-16T22:13:27.424Z,4.30
2018-07-16T22:15:55.748Z,4.40
2018-07-16T22:18:24.093Z,4.20
2018-07-16T22:20:52.415Z,3.60
2018-07-16T22:23:20.507Z,4.00
2018-07-16T22:25:48.827Z,3.90
2018-07-16T22:28:17.203Z,3.90
2018-07-16T22:30:45.512Z,3.90
2018-07-16T22:33:13.867Z,4.50
2018-07-16T22:35:42.189Z,3.97
2018-07-16T22:38:10.551Z,4.37
2018-07-16T22:40:38.626Z,4.10
2018-07-16T22:43:06.702Z,4.33
2018-07-16T22:45:35.006Z,3.90
2018-07-16T22:48:03.368Z,3.93
2018-07-16T22:50:31.688Z,3.93
2018-07-16T22:53:00.045Z,3.97
2018-07-16T22:55:28.403Z,4.10
2018-07-16T22:57:56.489Z,4.00
2018-07-16T23:00:24.799Z,4.10
2018-07-16T23:02:53.151Z,3.83
2018-07-16T23:05:21.490Z,4.20
2018-07-16T23:07:49.880Z,3.90
2018-07-16T23:10:18.235Z,3.87
2018-07-16T23:12:46.631Z,4.13
2018-07-16T23:15:15.010Z,4.27
2018-07-16T23:17:43.379Z,4.10
2018-07-16T23:20:11.726Z,3.80
2018-07-16T23:22:52.159Z,3.87
2018-07-16T23:25:21.134Z,4.17
2018-07-16T23:27:49.499Z,3.90
2018-07-16T23:30:17.868Z,3.90
2018-07-16T23:32:46.500Z,3.90
2018-07-16T23:35:15.675Z,3.60
2018-07-16T23:37:43.779Z,4.50
2018-07-16T23:40:12.161Z,4.23
2018-07-16T23:42:40.556Z,4.40
2018-07-16T23:45:08.920Z,4.40
2018-07-16T23:47:37.300Z,4.57
2018-07-16T23:50:05.818Z,4.20
2018-07-16T23:52:34.186Z,4.23
2018-07-16T23:55:02.560Z,4.70
2018-07-16T23:57:31.195Z,4.23
2018-07-16T23:59:59.294Z,4.20
